Goliah — WDD5908 — position and weather

sailwx.info

Track history (hours):
 
Tides and Currents Weather Stations Pressure Air Temp Water Temp Dewpoint Dewpoint Depression Visibility Wind Speed Wind Dir Waves Ship Positions

Goliah

Owner: Crowley Marine Services, Seattle, WA. More information available from US FCC via Universal Licensing System and Coast Guard Vessel Documentation Center.

Last reported at 2017-Jan-18 11:18 UTC. Time now 2017-Jan-23 08:38 UTC.
Position N 33°44' W 118°17'.

Length 33 m; draft 4.8 m.

Type: Tug. MMSI: 366898250.

Date/timePositionNaut miles runAvg speedWind from/ knotsBaromVisibWave heightAir tempDewpointWater temp
2017-Jan-18 11:18N 33°44' W 118°17'3 4.1
2017-Jan-18 10:29N 33°46' W 118°13'2 2.5
2017-Jan-18 09:31N 33°44' W 118°12'0 0.2
2017-Jan-18 08:32N 33°44' W 118°12'1 0.4
2017-Jan-18 04:31N 33°45' W 118°13'1 1.2
2017-Jan-18 03:26N 33°46' W 118°13'3 1.7
2017-Jan-18 01:33N 33°44' W 118°11'2 1.6
2017-Jan-18 00:31N 33°42' W 118°13'4 4.0
2017-Jan-17 23:33N 33°44' W 118°17'0 0.0
2017-Jan-17 22:33N 33°44' W 118°17'0 0.0
2017-Jan-17 21:33N 33°44' W 118°17'0 0.0
2017-Jan-17 20:33N 33°44' W 118°17'0 0.0
2017-Jan-17 19:33N 33°44' W 118°17'0 0.0
2017-Jan-17 18:33N 33°44' W 118°17'3 2.5
2017-Jan-17 17:23N 33°44' W 118°13'1 0.5
2017-Jan-17 15:33N 33°44' W 118°12'2 1.5
2017-Jan-17 14:33N 33°45' W 118°13'2 1.9
2017-Jan-17 13:28N 33°44' W 118°15'1 1.4
2017-Jan-17 12:33N 33°43' W 118°15'2 1.9
2017-Jan-17 11:18N 33°44' W 118°17'1 1.5
2017-Jan-17 10:33N 33°43' W 118°16'2 2.0
2017-Jan-17 09:33N 33°45' W 118°16'1 0.9
2017-Jan-17 08:33N 33°44' W 118°17'4 0.5
2017-Jan-17 01:10N 33°45' W 118°12'0 0.3
2017-Jan-17 00:27N 33°44' W 118°12'1 0.5
2017-Jan-16 23:14N 33°45' W 118°13'1 0.9
2017-Jan-16 22:27N 33°44' W 118°12'1 0.0
2017-Jan-15 08:18N 33°45' W 118°13'0 0.0
2017-Jan-15 07:27N 33°45' W 118°13'0 0.0
2017-Jan-15 06:31N 33°45' W 118°13'0 0.0
2017-Jan-15 05:26N 33°45' W 118°13'3 3.1
2017-Jan-15 04:32N 33°44' W 118°10'3 1.6
2017-Jan-15 02:33N 33°41' W 118°11'2 2.0
2017-Jan-15 01:33N 33°43' W 118°10'2 2.2
2017-Jan-15 00:33N 33°44' W 118°13'1 1.2
2017-Jan-14 23:33N 33°45' W 118°13'0 0.0
2017-Jan-14 22:33N 33°45' W 118°13'1 1.3
2017-Jan-14 21:33N 33°46' W 118°14'1 0.9
2017-Jan-14 20:33N 33°45' W 118°13'3 3.0
2017-Jan-14 19:33N 33°43' W 118°15'2 2.2
2017-Jan-14 18:33N 33°44' W 118°17'1 0.3
2017-Jan-14 14:09N 33°44' W 118°15'1 0.4
2017-Jan-14 11:30N 33°43' W 118°16'  
2017-Jan-12 00:30N 33°45' W 118°12'  
2017-Jan-09 06:32N 33°44' W 118°17'0 0.0
2017-Jan-09 05:34N 33°44' W 118°17'2 1.7
2017-Jan-09 04:34N 33°43' W 118°16'4 3.9
2017-Jan-09 03:33N 33°46' W 118°13'3 2.2
2017-Jan-09 02:19N 33°44' W 118°12'  
Track history (hours):
 
Tides and Currents Weather Stations Pressure Air Temp Water Temp Dewpoint Dewpoint Depression Visibility Wind Speed Wind Dir Waves Ship Positions

Goliah

Owner: Crowley Marine Services, Seattle, WA. More information available from US FCC via Universal Licensing System and Coast Guard Vessel Documentation Center.

Last reported at 2017-Jan-18 11:18 UTC. Time now 2017-Jan-23 08:38 UTC.
Position N 33°44' W 118°17'.

Length 33 m; draft 4.8 m.

Type: Tug. MMSI: 366898250.

Date/timePositionNaut miles runAvg speedWind from/ knotsBaromVisibWave heightAir tempDewpointWater temp
2017-Jan-18 11:18N 33°44' W 118°17'3 4.1
2017-Jan-18 10:29N 33°46' W 118°13'2 2.5
2017-Jan-18 09:31N 33°44' W 118°12'0 0.2
2017-Jan-18 08:32N 33°44' W 118°12'1 0.4
2017-Jan-18 04:31N 33°45' W 118°13'1 1.2
2017-Jan-18 03:26N 33°46' W 118°13'3 1.7
2017-Jan-18 01:33N 33°44' W 118°11'2 1.6
2017-Jan-18 00:31N 33°42' W 118°13'4 4.0
2017-Jan-17 23:33N 33°44' W 118°17'0 0.0
2017-Jan-17 22:33N 33°44' W 118°17'0 0.0
2017-Jan-17 21:33N 33°44' W 118°17'0 0.0
2017-Jan-17 20:33N 33°44' W 118°17'0 0.0
2017-Jan-17 19:33N 33°44' W 118°17'0 0.0
2017-Jan-17 18:33N 33°44' W 118°17'3 2.5
2017-Jan-17 17:23N 33°44' W 118°13'1 0.5
2017-Jan-17 15:33N 33°44' W 118°12'2 1.5
2017-Jan-17 14:33N 33°45' W 118°13'2 1.9
2017-Jan-17 13:28N 33°44' W 118°15'1 1.4
2017-Jan-17 12:33N 33°43' W 118°15'2 1.9
2017-Jan-17 11:18N 33°44' W 118°17'1 1.5
2017-Jan-17 10:33N 33°43' W 118°16'2 2.0
2017-Jan-17 09:33N 33°45' W 118°16'1 0.9
2017-Jan-17 08:33N 33°44' W 118°17'4 0.5
2017-Jan-17 01:10N 33°45' W 118°12'0 0.3
2017-Jan-17 00:27N 33°44' W 118°12'1 0.5
2017-Jan-16 23:14N 33°45' W 118°13'1 0.9
2017-Jan-16 22:27N 33°44' W 118°12'1 0.0
2017-Jan-15 08:18N 33°45' W 118°13'0 0.0
2017-Jan-15 07:27N 33°45' W 118°13'0 0.0
2017-Jan-15 06:31N 33°45' W 118°13'0 0.0
2017-Jan-15 05:26N 33°45' W 118°13'3 3.1
2017-Jan-15 04:32N 33°44' W 118°10'3 1.6
2017-Jan-15 02:33N 33°41' W 118°11'2 2.0
2017-Jan-15 01:33N 33°43' W 118°10'2 2.2
2017-Jan-15 00:33N 33°44' W 118°13'1 1.2
2017-Jan-14 23:33N 33°45' W 118°13'0 0.0
2017-Jan-14 22:33N 33°45' W 118°13'1 1.3
2017-Jan-14 21:33N 33°46' W 118°14'1 0.9
2017-Jan-14 20:33N 33°45' W 118°13'3 3.0
2017-Jan-14 19:33N 33°43' W 118°15'2 2.2
2017-Jan-14 18:33N 33°44' W 118°17'1 0.3
2017-Jan-14 14:09N 33°44' W 118°15'1 0.4
2017-Jan-14 11:30N 33°43' W 118°16'  
2017-Jan-12 00:30N 33°45' W 118°12'  
2017-Jan-09 06:32N 33°44' W 118°17'0 0.0
2017-Jan-09 05:34N 33°44' W 118°17'2 1.7
2017-Jan-09 04:34N 33°43' W 118°16'4 3.9
2017-Jan-09 03:33N 33°46' W 118°13'3 2.2
2017-Jan-09 02:19N 33°44' W 118°12'  

Dump ship's entire track history